Tiempo atmosférico en la estación meteorológica de Barbadillo, Salamanca (817 m.)



Fecha
DESCASC
Temp. máxima en grados centígrados (hora)
DESCASC
Temp. mínima en grados centígrados (hora)
DESCASC
Temp. media en grados centígrados
DESCASC
Racha de viento máxima en m/sg (hora)
DESCASC
Velocidad máxima media en intervalos de 10 minutos(hora)
DESCASC
Precipitaciones diarias en mm
DESCASC
Precipitaciones de 00:00 a 06:00 en mm
DESCASC
Precipitaciones de 06:00 a 12:00 en mm
DESCASC
Precipitaciones de 12:00 a 18:00 en mm
DESCASC
Precipitaciones de 18:00 a 24:00 en mm
DESCASC
20-09-2018 30.5 (16:20) 10.4 (07:40) 20.4 10 (17:50) 5.83 (16:00) 0 0 0 0 0
19-09-2018 30.3 (17:50) 10.7 (08:10) 20.5 6.67 (16:10) 4.72 (16:10) 0 0 0 0 0
18-09-2018 29 (15:40) 12.6 (08:30) 20.8 8.89 (16:50) 6.11 (17:30) 0 0 0 0 0
17-09-2018 29.8 (13:50) 12.6 (08:20) 21.2 8.89 (14:50) 5 (19:20) 0 0 0 0 0
16-09-2018 29.9 (14:50) 13.2 (00:00) 21.5 8.06 (16:10) 5.56 (16:10) 0 0 0 0 0
15-09-2018 30.4 (16:10) 11.1 (00:00) 20.8 7.22 (17:30) 3.33 (20:00) 0 0 0 0 0
14-09-2018 31 (16:50) 11.4 (00:00) 21.2 9.44 (14:50) 3.33 (17:40) 0 0 0 0 0
13-09-2018 31.6 (16:10) 11.6 (00:00) 21.6 7.5 (14:20) 4.17 (15:30) 0 0 0 0 0
12-09-2018 31.1 (17:00) 11.2 (00:00) 21.2 6.11 (13:10) 3.61 (18:00) 0 0 0 0 0
11-09-2018 28.9 (16:20) 10.2 (00:00) 19.5 10 (15:50) 5.56 (14:10) 0 0 0 0 0
10-09-2018 27.3 (17:20) 9.2 (00:00) 18.2 8.89 (12:50) 3.89 (12:20) 0 0 0 0 0
09-09-2018 27.2 (17:10) 10.5 (00:00) 18.9 16.11 (00:40) 10.83 (00:10) 0.2 0.2 0 0 0
08-09-2018 26.4 (17:40) 13.4 (00:00) 19.9 15.28 (23:50) 10.83 (23:59) 0.2 0 0 0 0.2
07-09-2018 27 (17:10) 13.1 (00:00) 20.1 11.39 (01:10) 6.94 (01:10) 0 0 0 0 0
06-09-2018 24.7 (17:30) 11.5 (00:00) 18.1 7.5 (14:10) 5 (13:10) 0 0 0 0 0
05-09-2018 25.2 (16:50) 12.3 (00:00) 18.8 9.72 (16:50) 5.56 (16:10) 0 0 0 0 0
04-09-2018 27.5 (16:30) 11.7 (00:00) 19.6 6.67 (19:50) 4.72 (19:50) 0 0 0 0 0
03-09-2018 29.2 (15:20) 17.3 (00:00) 23.3 10.83 (19:00) 4.17 (19:00) 7.8 0.6 0 0 7.2
02-09-2018 34.6 (16:30) 16.6 (00:00) 25.6 10.83 (20:30) 5.83 (17:30) 0 0 0 0 0
01-09-2018 32.2 (17:00) 12.7 (00:00) 22.5 7.5 (12:50) 5.56 (02:10) 0 0 0 0 0
31-08-2018 30.6 (17:40) 11.3 (00:00) 21 6.94 (13:30) 4.44 (12:40) 0 0 0 0 0
30-08-2018 30.9 (18:30) 13 (00:00) 21.9 6.94 (15:00) 3.61 (10:30) 0 0 0 0 0
29-08-2018 29 (18:20) 15.2 (00:00) 22.1 5.83 (15:50) 3.33 (17:10) 0 0 0 0 0
28-08-2018 30.3 (17:00) 15 (00:00) 22.6 14.17 (09:50) 7.5 (11:30) 0 0 0 0 0
27-08-2018 34.2 (14:40) 10.6 (00:00) 22.4 11.11 (16:50) 7.22 (16:30) 0 0 0 0 0
26-08-2018 31.7 (18:30) 11.2 (00:00) 21.5 7.5 (18:10) 4.44 (17:20) 0 0 0 0 0
25-08-2018 27.6 (18:30) 7.1 (00:00) 17.4 5.83 (13:50) 3.06 (10:00) 0 0 0 0 0

Gráficas

Temp. máximas Temp. mínimas Temp. medias Precipitaciones Rachas de viento máximas Velocidades máximas media en intervalos de 10 minutos

Datos horarios

Fecha y hora oficial Temperatura (ºC) Velocidad del viento (km/h) Dirección del viento Racha (km/h) Dirección de racha Precipitación (mm) Presión (hPa) Tendencia (hPa) Humedad (%)
2018-09-23 23:00:00 17.1 4 Sur 11 Sudeste 0 -- -- 45
2018-09-23 22:00:00 19.7 3 Sur 8 Sur 0 -- -- 39
2018-09-23 21:00:00 24.3 0 Calma 8 Norte 0 -- -- 33
2018-09-23 20:00:00 28.5 5 Norte 15 Norte 0 -- -- 27
2018-09-23 19:00:00 30.5 6 Norte 16 Noroeste 0 -- -- 25
2018-09-23 18:00:00 31.6 4 Nordeste 20 Noroeste 0 -- -- 23
2018-09-23 17:00:00 31.8 5 Oeste 18 Noroeste 0 -- -- 23
2018-09-23 16:00:00 31.4 10 Noroeste 17 Oeste 0 -- -- 24
2018-09-23 15:00:00 31.1 11 Oeste 19 Oeste 0 -- -- 25
2018-09-23 14:00:00 30.3 8 Sudoeste 22 Norte 0 -- -- 26
2018-09-23 13:00:00 30 5 Este 12 Este 0 -- -- 26
2018-09-23 12:00:00 27.8 3 Nordeste 7 Norte 0 -- -- 27
2018-09-23 11:00:00 23.2 3 Noroeste 5 Noroeste 0 -- -- 37
2018-09-23 10:00:00 16.7 0 Calma 4 Sur 0 -- -- 53
2018-09-23 09:00:00 11 2 Sur 9 Sur 0 -- -- 66
2018-09-23 08:00:00 10.1 4 Sur 6 Sudeste 0 -- -- 67
2018-09-23 07:00:00 10.7 2 Sur 6 Sur 0 -- -- 66
2018-09-23 06:00:00 11 4 Sur 6 Sur 0 -- -- 64
2018-09-23 05:00:00 11.1 6 Sur 9 Sur 0 -- -- 64
2018-09-23 04:00:00 11.3 5 Sudeste 8 Sudeste 0 -- -- 64
2018-09-23 03:00:00 12.4 0 Calma 5 Sur 0 -- -- 60
2018-09-23 02:00:00 13 4 Sur 8 Sur 0 -- -- 57
2018-09-23 01:00:00 14.3 3 Sur 8 Sur 0 -- -- 53
2018-09-23 00:00:00 15.5 6 Sur 10 Sur 0 -- -- 50
2018-09-22 23:00:00 17 8 Sur 10 Sur 0 -- -- 46
2018-09-22 22:00:00 18.8 7 Sur 9 Sur 0 -- -- 42
2018-09-22 21:00:00 23.5 0 Calma 6 Noroeste 0 -- -- 35
2018-09-22 20:00:00 28.2 3 Norte 10 Noroeste 0 -- -- 27
2018-09-22 19:00:00 29.6 4 Noroeste 18 Oeste 0 -- -- 24
2018-09-22 18:00:00 30.9 10 Oeste 30 Sudoeste 0 -- -- 22
2018-09-22 17:00:00 31.1 14 Sudoeste 24 Sudoeste 0 -- -- 22
2018-09-22 16:00:00 30.6 9 Oeste 26 Oeste 0 -- -- 25
2018-09-22 15:00:00 29.4 8 Oeste 25 Oeste 0 -- -- 27
2018-09-22 14:00:00 28.4 8 Oeste 18 Oeste 0 -- -- 29
2018-09-22 13:00:00 26 5 Noroeste 12 Noroeste 0 -- -- 34
2018-09-22 12:00:00 23.3 6 Noroeste 13 Noroeste 0 -- -- 39
2018-09-22 11:00:00 18.8 5 Noroeste 9 Norte 0 -- -- 50
2018-09-22 10:00:00 14.5 2 Norte 5 Norte 0 -- -- 61
2018-09-22 09:00:00 9.6 0 Calma 5 Sur 0 -- -- 75
2018-09-22 08:00:00 8.5 3 Sur 8 Sur 0 -- -- 75
2018-09-22 07:00:00 8.8 3 Sur 9 Sur 0 -- -- 73
2018-09-22 06:00:00 9.1 7 Sur 9 Sur 0 -- -- 70
2018-09-22 05:00:00 10.2 0 Calma 9 Sudeste 0 -- -- 66
2018-09-22 04:00:00 10.6 4 Sur 8 Sur 0 -- -- 63
2018-09-22 03:00:00 11.2 5 Sur 9 Sur 0 -- -- 62
2018-09-22 02:00:00 12 5 Sur 8 Sur 0 -- -- 59
2018-09-22 01:00:00 12.9 4 Sur 7 Sur 0 -- -- 55
2018-09-22 00:00:00 14.5 5 Sur 10 Sur 0 -- -- 51
2018-09-21 23:00:00 16.3 7 Sur 10 Sur 0 -- -- 46
2018-09-21 22:00:00 18.7 3 Sudeste 7 Sur 0 -- -- 43
2018-09-21 21:00:00 23.1 3 Noroeste 9 Noroeste 0 -- -- 33
2018-09-21 20:00:00 25.8 4 Noroeste 14 Oeste 0 -- -- 31
2018-09-21 19:00:00 27.4 9 Oeste 18 Oeste 0 -- -- 31
2018-09-21 18:00:00 28 11 Oeste 24 Oeste 0 -- -- 32
2018-09-21 17:00:00 27.7 5 Norte 20 Norte 0 -- -- 32
2018-09-21 16:00:00 27.1 7 Norte 18 Norte 0 -- -- 35
2018-09-21 15:00:00 26 5 Norte 15 Noroeste 0 -- -- 35
2018-09-21 14:00:00 25.2 4 Noroeste 14 Noroeste 0 -- -- 33
2018-09-21 13:00:00 23.5 7 Norte 14 Norte 0 -- -- 44
2018-09-21 12:00:00 21.6 5 Norte 13 Oeste 0 -- -- 48
2018-09-21 11:00:00 19.5 6 Oeste 9 Sudoeste 0 -- -- 56
2018-09-21 10:00:00 16 6 Oeste 9 Oeste 0 -- -- 70
2018-09-21 09:00:00 11.1 3 Sur 6 Sur 0 -- -- 80
2018-09-21 08:00:00 10.6 3 Sur 9 Sur 0 -- -- 77
2018-09-21 07:00:00 11.9 2 Este 12 Oeste 0 -- -- 74
2018-09-21 06:00:00 12.8 6 Sur 11 Sur 0 -- -- 71
2018-09-21 05:00:00 13.2 6 Sur 16 Sur 0 -- -- 68
2018-09-21 04:00:00 14.4 7 Sur 8 Sur 0 -- -- 61
2018-09-21 03:00:00 15.2 6 Sudoeste 9 Sudoeste 0 -- -- 59
2018-09-21 02:00:00 15.6 6 Sudoeste 10 Sudoeste 0 -- -- 58
2018-09-21 01:00:00 17.2 3 Sudoeste 10 Sudoeste 0 -- -- 58
2018-09-21 00:00:00 18.4 5 Sudoeste 9 Sudoeste 0 -- -- 57
2018-09-20 23:00:00 20.3 5 Sudoeste 10 Sudoeste 0 -- -- 52
2018-09-20 22:00:00 21.1 5 Sudoeste 7 Sur 0 -- -- 49
2018-09-20 21:00:00 24.6 4 Oeste 10 Noroeste 0 -- -- 41
2018-09-20 20:00:00 27 6 Sudoeste 25 Oeste 0 -- -- 36
2018-09-20 19:00:00 28.8 12 Oeste 28 Sudoeste 0 -- -- 33
2018-09-20 18:00:00 29.8 17 Sudoeste 36 Sudoeste 0 -- -- 31
2018-09-20 17:00:00 29.5 18 Sudoeste 33 Oeste 0 -- -- 31
2018-09-20 16:00:00 29.9 21 Oeste 30 Oeste 0 -- -- 30
2018-09-20 15:00:00 29.2 14 Sudoeste 31 Sudoeste 0 -- -- 32
2018-09-20 14:00:00 29.4 16 Sudoeste 27 Oeste 0 -- -- 31
2018-09-20 13:00:00 28.5 8 Sudoeste 26 Oeste 0 -- -- 33
2018-09-20 12:00:00 26.6 6 Noroeste 12 Noroeste 0 -- -- 37
2018-09-20 11:00:00 22.9 3 Norte 6 Este 0 -- -- 48
2018-09-20 10:00:00 17 0 Calma 4 Sudeste 0 -- -- 65
2018-09-20 09:00:00 11.5 3 Sur 7 Sur 0 -- -- 75
2018-09-20 08:00:00 10.4 5 Sur 8 Sur 0 -- -- 76
2018-09-20 07:00:00 10.7 3 Sur 6 Sur 0 -- -- 73
2018-09-20 06:00:00 11.2 3 Sur 5 Sur 0 -- -- 70
2018-09-20 05:00:00 11.8 3 Sur 5 Sudeste 0 -- -- 68
2018-09-20 04:00:00 12.5 5 Sur 8 Sur 0 -- -- 66
2018-09-20 03:00:00 13.4 5 Sur 7 Sur 0 -- -- 62
2018-09-20 02:00:00 14.5 3 Sur 8 Sur 0 -- -- 59
2018-09-20 01:00:00 15.5 3 Sur 6 Sur 0 -- -- 56
2018-09-20 00:00:00 17.1 5 Sur 6 Sur 0 -- -- 51
2018-09-19 23:00:00 18.5 4 Sur 6 Sur 0 -- -- 47
2018-09-19 22:00:00 21 5 Sudoeste 10 Sur 0 -- -- 41
2018-09-19 21:00:00 23.7 6 Sur 13 Oeste 0 -- -- 36
2018-09-19 20:00:00 27.9 7 Sudoeste 14 Oeste 0 -- -- 32
2018-09-19 19:00:00 29.4 11 Sudoeste 22 Sudoeste 0 -- -- 29
2018-09-19 18:00:00 30.2 9 Oeste 23 Sudoeste 0 -- -- 28
2018-09-19 17:00:00 29.3 10 Sudoeste 24 Sudoeste 0 -- -- 30
2018-09-19 16:00:00 29.4 5 Sudoeste 19 Sudoeste 0 -- -- 32
2018-09-19 15:00:00 28.2 5 Nordeste 19 Sudoeste 0 -- -- 36
2018-09-19 14:00:00 27.7 8 Sur 19 Oeste 0 -- -- 37
2018-09-19 13:00:00 27.2 10 Sudoeste 20 Sudoeste 0 -- -- 40
2018-09-19 12:00:00 24.3 4 Este 9 Norte 0 -- -- 48
2018-09-19 11:00:00 20.3 6 Norte 10 Norte 0 -- -- 58
2018-09-19 10:00:00 16.4 0 Calma 4 Sur 0 -- -- 72
2018-09-19 09:00:00 11.8 0 Calma 6 Sur 0 -- -- 85
2018-09-19 08:00:00 10.8 4 Sur 9 Sur 0 -- -- 85
2018-09-19 07:00:00 11.2 4 Sur 5 Sudoeste 0 -- -- 83
2018-09-19 06:00:00 11.6 3 Sur 7 Sur 0 -- -- 82
2018-09-19 05:00:00 12.4 2 Sur 4 Sur 0 -- -- 80
2018-09-19 04:00:00 13.4 3 Sudeste 5 Sur 0 -- -- 77
2018-09-19 03:00:00 14.1 4 Sur 12 Sur 0 -- -- 77
2018-09-19 02:00:00 14.4 6 Sur 8 Sur 0 -- -- 75
2018-09-19 01:00:00 15.6 6 Sur 9 Sur 0 -- -- 73
2018-09-19 00:00:00 17.8 3 Sudoeste 18 Noroeste 0 -- -- 68
2018-09-18 23:00:00 18.9 3 Sur 8 Sur 0 -- -- 65
2018-09-18 22:00:00 20.5 5 Sur 13 Sur 0 -- -- 60
2018-09-18 21:00:00 22.7 8 Sur 24 Sudeste 0 -- -- 54
2018-09-18 20:00:00 25.6 12 Este 18 Nordeste 0 -- -- 44
2018-09-18 19:00:00 27.2 0 Calma 20 Sudoeste 0 -- -- 39
2018-09-18 18:00:00 27.5 13 Sudoeste 31 Sudoeste 0 -- -- 39
2018-09-18 17:00:00 28.3 12 Sudoeste 32 Sudoeste 0 -- -- 35
2018-09-18 16:00:00 28.6 14 Sudoeste 27 Oeste 0 -- -- 34
2018-09-18 15:00:00 27.7 12 Oeste 31 Oeste 0 -- -- 38
2018-09-18 14:00:00 28 11 Oeste 21 Oeste 0 -- -- 38
2018-09-18 13:00:00 26.3 8 Noroeste 18 Noroeste 0 -- -- 40
2018-09-18 12:00:00 24.9 5 Sudeste 10 Oeste 0 -- -- 41
2018-09-18 11:00:00 22 4 Noroeste 8 Oeste 0 -- -- 46
2018-09-18 10:00:00 17.6 2 Este 6 Sudeste 0 -- -- 67
2018-09-18 09:00:00 13.6 0 Calma 6 Sudoeste 0 -- -- 78
2018-09-18 08:00:00 12.9 2 Sur 4 Sur 0 -- -- 77
2018-09-18 07:00:00 13.4 3 Sur 6 Sur 0 -- -- 76
2018-09-18 06:00:00 14 5 Sudeste 9 Sur 0 -- -- 77
2018-09-18 05:00:00 14.5 5 Sur 9 Sudeste 0 -- -- 74
2018-09-18 04:00:00 15.1 5 Sur 8 Sur 0 -- -- 75
2018-09-18 03:00:00 15.8 4 Sur 8 Sur 0 -- -- 72
2018-09-18 02:00:00 16 6 Sur 8 Sur 0 -- -- 70
2018-09-18 01:00:00 16.9 7 Sur 9 Sur 0 -- -- 67
2018-09-18 00:00:00 18.5 4 Sur 8 Sur 0 -- -- 59
2018-09-17 23:00:00 20.4 3 Sudoeste 6 Este 0 -- -- 58
2018-09-17 22:00:00 22.9 2 Sudoeste 6 Oeste 0 -- -- 53
2018-09-17 21:00:00 24.3 6 Oeste 27 Noroeste 0 -- -- 41
2018-09-17 20:00:00 26.2 11 Noroeste 29 Oeste 0 -- -- 39
2018-09-17 19:00:00 28.2 13 Noroeste 32 Noroeste 0 -- -- 34
2018-09-17 18:00:00 28.8 10 Noroeste 26 Oeste 0 -- -- 31
2018-09-17 17:00:00 29.2 12 Noroeste 25 Noroeste 0 -- -- 31
2018-09-17 16:00:00 28.6 15 Oeste 27 Oeste 0 -- -- 33
2018-09-17 15:00:00 28.4 11 Sudoeste 32 Sudoeste 0 -- -- 33
2018-09-17 14:00:00 29.6 14 Sur 24 Sudeste 0 -- -- 30
2018-09-17 13:00:00 28.6 13 Sur 24 Sur 0 -- -- 31
2018-09-17 12:00:00 27.5 12 Sur 24 Sudeste 0 -- -- 35
2018-09-17 11:00:00 25.2 9 Sur 16 Sur 0 -- -- 41
2018-09-17 10:00:00 17.7 0 Calma 4 Sur 0 -- -- 70
2018-09-17 09:00:00 13.4 0 Calma 3 Sur 0 -- -- 77
2018-09-17 08:00:00 12.8 3 Sur 5 Sur 0 -- -- 76
2018-09-17 07:00:00 13.2 4 Sur 6 Sur 0 -- -- 75
2018-09-17 06:00:00 13.6 4 Sur 6 Sur 0 -- -- 73
2018-09-17 05:00:00 14 4 Sur 6 Sur 0 -- -- 70
2018-09-17 04:00:00 15 6 Sur 7 Sur 0 -- -- 67
2018-09-17 03:00:00 16.9 0 Calma 4 Sur 0 -- -- 64
2018-09-17 02:00:00 18.1 0 Calma 3 Sur 0 -- -- 62
2018-09-17 01:00:00 18.2 2 Sudeste 3 Sur 0 -- -- 60
2018-09-17 00:00:00 18.7 2 Sudeste 5 Sur 0 -- -- 58
2018-09-16 23:00:00 19.7 4 Sudeste 9 Sudeste 0 -- -- 53
2018-09-16 22:00:00 21.3 2 Sur 6 Sudoeste 0 -- -- 48
2018-09-16 21:00:00 23.8 5 Oeste 17 Oeste 0 -- -- 41
2018-09-16 20:00:00 26.3 13 Oeste 23 Oeste 0 -- -- 38
2018-09-16 19:00:00 28 2 Oeste 14 Oeste 0 -- -- 37
2018-09-16 18:00:00 27.4 9 Sudoeste 23 Sur 0 -- -- 36
2018-09-16 17:00:00 26.8 15 Sur 29 Sur 0 -- -- 34
2018-09-16 16:00:00 27.1 17 Sudeste 28 Sudeste 0 -- -- 38
2018-09-16 15:00:00 29.4 5 Nordeste 11 Norte 0 -- -- 33
2018-09-16 14:00:00 28.6 6 Oeste 11 Oeste 0 -- -- 34
2018-09-16 13:00:00 27.8 3 Nordeste 9 Este 0 -- -- 39
2018-09-16 12:00:00 26.2 4 Noroeste 10 Oeste 0 -- -- 41
2018-09-16 11:00:00 24.3 5 Oeste 12 Oeste 0 -- -- 46
2018-09-16 10:00:00 18.9 3 Sur 7 Sur 0 -- -- 65
2018-09-16 09:00:00 14 0 Calma 8 Sur 0 -- -- 80
2018-09-16 08:00:00 13.3 3 Sudeste 8 Sudeste 0 -- -- 81
2018-09-16 07:00:00 14.2 2 Sudeste 8 Sur 0 -- -- 77
2018-09-16 06:00:00 14.5 5 Sudeste 9 Sudoeste 0 -- -- 77
2018-09-16 05:00:00 14.6 5 Sudoeste 8 Sur 0 -- -- 76
2018-09-16 04:00:00 15.3 5 Sur 9 Sur 0 -- -- 74
2018-09-16 03:00:00 15.2 6 Sudeste 9 Sur 0 -- -- 75
2018-09-16 02:00:00 16 5 Sur 6 Sur 0 -- -- 71
2018-09-16 01:00:00 17.2 4 Sur 6 Sudeste 0 -- -- 68
2018-09-16 00:00:00 18.9 3 Sur 7 Sur 0 -- -- 64
2018-09-15 23:00:00 20.3 5 Sur 10 Sur 0 -- -- 60
2018-09-15 22:00:00 21.9 4 Sur 8 Sur 0 -- -- 55
2018-09-15 21:00:00 24.3 4 Sur 17 Sudoeste 0 -- -- 48
2018-09-15 20:00:00 26.4 12 Sudoeste 18 Sudoeste 0 -- -- 41
2018-09-15 19:00:00 28.9 5 Norte 14 Norte 0 -- -- 30
2018-09-15 18:00:00 30.3 5 Noroeste 26 Norte 0 -- -- 29
2018-09-15 17:00:00 30.1 7 Noroeste 19 Este 0 -- -- 30
2018-09-15 16:00:00 30.1 9 Este 20 Nordeste 0 -- -- 31
2018-09-15 15:00:00 28.3 5 Noroeste 15 Noroeste 0 -- -- 38
2018-09-15 14:00:00 26.7 6 Oeste 11 Noroeste 0 -- -- 44
2018-09-15 13:00:00 24.2 6 Noroeste 11 Nordeste 0 -- -- 50
2018-09-15 12:00:00 22.2 4 Este 10 Nordeste 0 -- -- 56
2018-09-15 11:00:00 19.2 5 Nordeste 10 Nordeste 0 -- -- 67
2018-09-15 10:00:00 16 5 Noroeste 8 Noroeste 0 -- -- 79
2018-09-15 09:00:00 11.9 3 Sur 6 Sur 0 -- -- 85
2018-09-15 08:00:00 11.4 5 Sur 7 Sur 0 -- -- 83
2018-09-15 07:00:00 12.2 0 Calma 6 Sur 0 -- -- 84
2018-09-15 06:00:00 12.8 3 Sur 6 Sur 0 -- -- 82
2018-09-15 05:00:00 13.8 5 Sur 8 Sur 0 -- -- 76
2018-09-15 04:00:00 14.7 0 Calma 5 Oeste 0 -- -- 74
2018-09-15 03:00:00 15.9 0 Calma 9 Sur 0 -- -- 70
2018-09-15 02:00:00 16.8 4 Sur 8 Sur 0 -- -- 68
2018-09-15 01:00:00 18.1 5 Sur 12 Oeste 0 -- -- 64
2018-09-15 00:00:00 19.2 4 Sur 11 Sur 0 -- -- 62
2018-09-14 23:00:00 20.2 2 Sur 8 Sur 0 -- -- 59
2018-09-14 22:00:00 20.9 5 Sur 7 Sur 0 -- -- 56
2018-09-14 21:00:00 23.8 5 Sur 11 Sudoeste 0 -- -- 55
2018-09-14 20:00:00 26.4 3 Sudeste 9 Oeste 0 -- -- 41
2018-09-14 19:00:00 27.6 2 Nordeste 14 Sur 0 -- -- 36
2018-09-14 18:00:00 29.1 9 Este 16 Este 0 -- -- 33
2018-09-14 17:00:00 30.6 5 Norte 17 Norte 0 -- -- 30
2018-09-14 16:00:00 30.6 8 Noroeste 18 Norte 0 -- -- 30
2018-09-14 15:00:00 30.6 8 Nordeste 34 Oeste 0 -- -- 31
2018-09-14 14:00:00 29.5 6 Este 15 Este 0 -- -- 34
2018-09-14 13:00:00 27.4 6 Nordeste 14 Nordeste 0 -- -- 38
2018-09-14 12:00:00 24.9 9 Este 16 Este 0 -- -- 43
2018-09-14 11:00:00 21.7 8 Nordeste 13 Este 0 -- -- 51
2018-09-14 10:00:00 18 9 Este 14 Este 0 -- -- 62
2018-09-14 09:00:00 12.5 0 Calma 6 Sur 0 -- -- 81
2018-09-14 08:00:00 11.7 2 Sur 4 Sur 0 -- -- 80
2018-09-14 07:00:00 12.1 4 Sur 6 Sur 0 -- -- 79
2018-09-14 06:00:00 12.8 4 Sur 5 Sur 0 -- -- 77
2018-09-14 05:00:00 13.7 2 Sur 8 Oeste 0 -- -- 75
2018-09-14 04:00:00 14.4 4 Sudoeste 10 Sur 0 -- -- 73
2018-09-14 03:00:00 14.8 5 Sur 8 Sur 0 -- -- 71
2018-09-14 02:00:00 15.9 3 Sudeste 6 Sudeste 0 -- -- 67
2018-09-14 01:00:00 17.1 4 Sur 9 Sur 0 -- -- 62
2018-09-14 00:00:00 18.1 6 Sur 10 Sudeste 0 -- -- 59
2018-09-13 23:00:00 20.3 3 Sudoeste 7 Sur 0 -- -- 52
2018-09-13 22:00:00 22.9 2 Sur 6 Sur 0 -- -- 46
2018-09-13 21:00:00 26 0 Calma 8 Noroeste 0 -- -- 43
2018-09-13 20:00:00 28.8 5 Noroeste 17 Noroeste 0 -- -- 35
2018-09-13 19:00:00 30.2 13 Noroeste 19 Oeste 0 -- -- 31
2018-09-13 18:00:00 30.6 9 Noroeste 17 Oeste 0 -- -- 30
2018-09-13 17:00:00 30.8 8 Norte 20 Oeste 0 -- -- 29
2018-09-13 16:00:00 31.4 8 Sur 24 Sudoeste 0 -- -- 29
2018-09-13 15:00:00 30.3 12 Oeste 27 Oeste 0 -- -- 30
2018-09-13 14:00:00 30.1 9 Sudoeste 21 Sudoeste 0 -- -- 32
2018-09-13 13:00:00 28.6 7 Noroeste 14 Oeste 0 -- -- 35
2018-09-13 12:00:00 26.9 4 Noroeste 9 Noroeste 0 -- -- 39
2018-09-13 11:00:00 23.3 3 Norte 6 Noroeste 0 -- -- 52
2018-09-13 10:00:00 18 0 Calma 3 Este 0 -- -- 66
2018-09-13 09:00:00 13 3 Sur 5 Sur 0 -- -- 80
2018-09-13 08:00:00 11.7 3 Sur 5 Sur 0 -- -- 80
2018-09-13 07:00:00 12.3 0 Calma 6 Sur 0 -- -- 76
2018-09-13 06:00:00 12.8 5 Sur 6 Sur 0 -- -- 74
2018-09-13 05:00:00 13.7 3 Sur 6 Sur 0 -- -- 71
2018-09-13 04:00:00 14.5 5 Sudoeste 8 Sur 0 -- -- 68
2018-09-13 03:00:00 15 6 Sur 8 Sur 0 -- -- 66
2018-09-13 02:00:00 16.3 4 Sur 6 Sur 0 -- -- 61
2018-09-13 01:00:00 17.2 4 Sur 13 Oeste 0 -- -- 59
2018-09-13 00:00:00 18.2 5 Sur 11 Sur 0 -- -- 55
2018-09-12 23:00:00 19.2 7 Sur 9 Sur 0 -- -- 51
2018-09-12 22:00:00 22 0 Calma 6 Sudeste 0 -- -- 45
2018-09-12 21:00:00 25.8 0 Calma 12 Noroeste 0 -- -- 39
2018-09-12 20:00:00 28.8 5 Noroeste 10 Noroeste 0 -- -- 32
2018-09-12 19:00:00 28.8 5 Noroeste 22 Oeste 0 -- -- 32
2018-09-12 18:00:00 30.7 13 Oeste 22 Sudoeste 0 -- -- 28
2018-09-12 17:00:00 31.1 11 Oeste 20 Oeste 0 -- -- 28
2018-09-12 16:00:00 29.4 10 Oeste 21 Oeste 0 -- -- 31
2018-09-12 15:00:00 28.9 7 Noroeste 21 Sudoeste 0 -- -- 31
2018-09-12 14:00:00 28.4 8 Noroeste 22 Oeste 0 -- -- 35
2018-09-12 13:00:00 27.3 11 Oeste 20 Oeste 0 -- -- 40
2018-09-12 12:00:00 25.6 9 Oeste 17 Oeste 0 -- -- 43
2018-09-12 11:00:00 22.6 5 Oeste 10 Oeste 0 -- -- 53
2018-09-12 10:00:00 17.5 2 Sudeste 4 Este 0 -- -- 71
2018-09-12 09:00:00 12.2 2 Sur 6 Sur 0 -- -- 85
2018-09-12 08:00:00 11.5 0 Calma 8 Sur 0 -- -- 83
2018-09-12 07:00:00 12 7 Sur 9 Sur 0 -- -- 83
2018-09-12 06:00:00 12.5 4 Sudoeste 10 Sur 0 -- -- 81
2018-09-12 05:00:00 13.6 0 Calma 5 Sur 0 -- -- 75
2018-09-12 04:00:00 14.6 4 Sur 5 Sur 0 -- -- 75
2018-09-12 03:00:00 15.4 4 Sur 6 Sur 0 -- -- 71
2018-09-12 02:00:00 16.3 3 Sur 6 Sudeste 0 -- -- 68
2018-09-12 01:00:00 16.3 6 Sudoeste 15 Oeste 0 -- -- 67
2018-09-12 00:00:00 16.8 3 Sur 6 Sur 0 -- -- 60
2018-09-11 23:00:00 18.2 3 Sur 9 Sur 0 -- -- 55
2018-09-11 22:00:00 20.9 3 Sur 8 Sur 0 -- -- 49
2018-09-11 21:00:00 24.8 3 Nordeste 15 Este 0 -- -- 42
2018-09-11 20:00:00 27.3 10 Nordeste 19 Este 0 -- -- 35
2018-09-11 19:00:00 28.3 11 Nordeste 22 Nordeste 0 -- -- 34
2018-09-11 18:00:00 28.6 9 Nordeste 26 Este 0 -- -- 33
2018-09-11 17:00:00 28.8 12 Nordeste 28 Nordeste 0 -- -- 34
2018-09-11 16:00:00 28.6 15 Nordeste 36 Nordeste 0 -- -- 33
2018-09-11 15:00:00 28.3 14 Nordeste 34 Nordeste 0 -- -- 33
2018-09-11 14:00:00 27.2 16 Nordeste 29 Este 0 -- -- 38
2018-09-11 13:00:00 26.1 15 Este 27 Este 0 -- -- 41
2018-09-11 12:00:00 24.6 8 Este 15 Este 0 -- -- 46
2018-09-11 11:00:00 21.6 9 Este 13 Este 0 -- -- 56
2018-09-11 10:00:00 16.4 3 Noroeste 5 Noroeste 0 -- -- 73
2018-09-11 09:00:00 11.8 0 Calma 6 Sur 0 -- -- 85
2018-09-11 08:00:00 10.3 5 Sur 7 Sur 0 -- -- 84
2018-09-11 07:00:00 10.9 3 Norte 8 Sur 0 -- -- 84
2018-09-11 06:00:00 10.9 6 Sur 8 Sur 0 -- -- 83
2018-09-11 05:00:00 11.7 4 Sur 8 Sur 0 -- -- 80
2018-09-11 04:00:00 12.5 4 Sur 5 Sur 0 -- -- 77
2018-09-11 03:00:00 12.8 4 Sur 7 Sur 0 -- -- 75
2018-09-11 02:00:00 13.8 0 Calma 8 Sur 0 -- -- 71
2018-09-11 01:00:00 14.8 2 Sur 8 Sur 0 -- -- 66
2018-09-11 00:00:00 15.6 5 Sur 8 Sur 0 -- -- 62
2018-09-10 23:00:00 16.9 7 Sur 9 Sur 0 -- -- 56
2018-09-10 22:00:00 19.7 3 Sur 6 Sur 0 -- -- 46
2018-09-10 21:00:00 23.6 2 Este 13 Este 0 -- -- 40
2018-09-10 20:00:00 26.1 8 Este 21 Este 0 -- -- 33
2018-09-10 19:00:00 27 6 Este 24 Este 0 -- -- 32
2018-09-10 18:00:00 27.3 6 Este 20 Este 0 -- -- 32
2018-09-10 17:00:00 27.1 9 Nordeste 22 Nordeste 0 -- -- 34
2018-09-10 16:00:00 26 5 Nordeste 26 Nordeste 0 -- -- 39
2018-09-10 15:00:00 25.5 9 Nordeste 21 Este 0 -- -- 42
2018-09-10 14:00:00 24.1 9 Nordeste 21 Este 0 -- -- 46
2018-09-10 13:00:00 22.4 9 Nordeste 32 Norte 0 -- -- 54
2018-09-10 12:00:00 20.5 9 Nordeste 18 Este 0 -- -- 64
2018-09-10 11:00:00 18.4 10 Este 18 Nordeste 0 -- -- 73
2018-09-10 10:00:00 15.8 8 Este 15 Este 0 -- -- 84
2018-09-10 09:00:00 10.4 3 Sur 5 Sur 0 -- -- 89
2018-09-10 08:00:00 9.3 0 Calma 7 Sur 0 -- -- 88
2018-09-10 07:00:00 9.7 3 Sur 8 Sur 0 -- -- 87
2018-09-10 06:00:00 10.2 0 Calma 8 Sur 0 -- -- 84
2018-09-10 05:00:00 10.5 6 Sur 9 Sudeste 0 -- -- 83
2018-09-10 04:00:00 11.2 3 Sudeste 4 Sur 0 -- -- 80
2018-09-10 03:00:00 11.9 2 Sudeste 6 Sur 0 -- -- 78
2018-09-10 02:00:00 13.2 0 Calma 4 Sudoeste 0 -- -- 72
2018-09-10 01:00:00 14.5 2 Sudeste 6 Noroeste 0 -- -- 67
2018-09-10 00:00:00 15.7 0 Calma 7 Noroeste 0 -- -- 62
2018-09-09 23:00:00 17.9 4 Sur 6 Sur 0 -- -- 54
2018-09-09 22:00:00 20.9 5 Sur 6 Sur 0 -- -- 46
2018-09-09 21:00:00 23.3 2 Nordeste 10 Nordeste 0 -- -- 40
2018-09-09 20:00:00 25.6 7 Nordeste 21 Este 0 -- -- 34
2018-09-09 19:00:00 25.9 7 Norte 15 Nordeste 0 -- -- 33
2018-09-09 18:00:00 26 6 Noroeste 19 Nordeste 0 -- -- 32
2018-09-09 17:00:00 26.8 5 Nordeste 22 Norte 0 -- -- 31
2018-09-09 16:00:00 25.7 8 Noroeste 21 Noroeste 0 -- -- 32
2018-09-09 15:00:00 25.6 8 Oeste 21 Noroeste 0 -- -- 36
2018-09-09 14:00:00 24.5 3 Este 18 Oeste 0 -- -- 37
2018-09-09 13:00:00 23.3 7 Oeste 15 Oeste 0 -- -- 40
2018-09-09 12:00:00 21.7 7 Noroeste 14 Oeste 0 -- -- 46
2018-09-09 11:00:00 19.1 7 Noroeste 11 Norte 0 -- -- 61
2018-09-09 10:00:00 15.7 4 Sudeste 6 Sur 0 -- -- 74
2018-09-09 09:00:00 11.9 2 Oeste 4 Noroeste 0 -- -- 88
2018-09-09 08:00:00 10.6 0 Calma 7 Sur 0 -- -- 88
2018-09-09 07:00:00 10.9 6 Sur 9 Sur 0 -- -- 88
2018-09-09 06:00:00 12 6 Sur 7 Sur 0 -- -- 84
2018-09-09 05:00:00 13.4 2 Sur 6 Sur 0 -- -- 78
2018-09-09 04:00:00 14.7 6 Sudoeste 26 Sudoeste 0 -- -- 70
2018-09-09 03:00:00 16.5 10 Oeste 32 Oeste 0 -- -- 61
2018-09-09 02:00:00 15.1 15 Sudeste 41 Sur 0.2 -- -- 71
2018-09-09 01:00:00 16.8 23 Sur 58 Sur 0 -- -- 57
2018-09-09 00:00:00 16.2 39 Sur 55 Sudoeste 0 -- -- 62
2018-09-08 23:00:00 17.4 17 Sudoeste 31 Sudoeste 0 -- -- 63
2018-09-08 22:00:00 17.4 4 Nordeste 22 Este 0.2 -- -- 69
2018-09-08 21:00:00 18.2 12 Sudoeste 32 Oeste 0 -- -- 66
2018-09-08 20:00:00 20.2 7 Sudeste 40 Sur 0 -- -- 53
2018-09-08 19:00:00 22.1 28 Sudeste 49 Sur 0 -- -- 48
2018-09-08 18:00:00 25.7 19 Este 31 Este 0 -- -- 37
2018-09-08 17:00:00 25.8 9 Este 24 Este 0 -- -- 36
2018-09-08 16:00:00 25.9 14 Este 29 Nordeste 0 -- -- 41
2018-09-08 15:00:00 23.9 19 Este 32 Este 0 -- -- 40
2018-09-08 14:00:00 23.2 6 Sur 23 Sur 0 -- -- 47
2018-09-08 13:00:00 21.7 9 Sudeste 22 Sur 0 -- -- 51
2018-09-08 12:00:00 20.4 4 Este 17 Sur 0 -- -- 60
2018-09-08 11:00:00 18.9 5 Sur 13 Sur 0 -- -- 63
2018-09-08 10:00:00 17.9 6 Sudeste 15 Este 0 -- -- 71
2018-09-08 09:00:00 14.1 3 Sur 6 Sur 0 -- -- 91
2018-09-08 08:00:00 13.5 2 Sudoeste 8 Norte 0 -- -- 88
2018-09-08 07:00:00 14.1 5 Noroeste 9 Este 0 -- -- 87
2018-09-08 06:00:00 14.9 4 Nordeste 16 Este 0 -- -- 84
2018-09-08 05:00:00 15.4 8 Este 20 Este 0 -- -- 81
2018-09-08 04:00:00 15.7 7 Sudeste 32 Este 0 -- -- 79
2018-09-08 03:00:00 16.9 24 Este 31 Este 0 -- -- 75
2018-09-08 02:00:00 17.4 19 Este 31 Nordeste 0 -- -- 72
2018-09-08 01:00:00 19.1 12 Sur 24 Nordeste 0 -- -- 60
2018-09-08 00:00:00 19.2 13 Este 22 Este 0 -- -- 56
2018-09-07 23:00:00 19.5 8 Nordeste 19 Nordeste 0 -- -- 52
2018-09-07 22:00:00 20.5 4 Nordeste 18 Este 0 -- -- 48
2018-09-07 21:00:00 22.5 13 Este 19 Este 0 -- -- 44
2018-09-07 20:00:00 24.4 9 Este 19 Nordeste 0 -- -- 38
2018-09-07 19:00:00 25.9 13 Este 23 Este 0 -- -- 37
2018-09-07 18:00:00 26 7 Este 25 Este 0 -- -- 37
2018-09-07 17:00:00 26.7 7 Nordeste 19 Este 0 -- -- 35
2018-09-07 16:00:00 26 12 Este 22 Este 0 -- -- 36
2018-09-07 15:00:00 25.5 9 Este 27 Este 0 -- -- 38
2018-09-07 14:00:00 23.9 12 Nordeste 27 Este 0 -- -- 45
2018-09-07 13:00:00 22.7 16 Este 24 Este 0 -- -- 50
2018-09-07 12:00:00 20.3 10 Nordeste 20 Este 0 -- -- 60
2018-09-07 11:00:00 17.5 15 Este 25 Nordeste 0 -- -- 69
2018-09-07 10:00:00 15.5 12 Nordeste 20 Nordeste 0 -- -- 77
2018-09-07 09:00:00 13.9 12 Nordeste 20 Nordeste 0 -- -- 82
2018-09-07 08:00:00 13.2 7 Nordeste 15 Nordeste 0 -- -- 83
2018-09-07 07:00:00 13.6 8 Nordeste 14 Nordeste 0 -- -- 81
2018-09-07 06:00:00 14.3 6 Nordeste 22 Nordeste 0 -- -- 78
2018-09-07 05:00:00 15 12 Nordeste 22 Nordeste 0 -- -- 77
2018-09-07 04:00:00 15.8 15 Nordeste 28 Nordeste 0 -- -- 75
2018-09-07 03:00:00 16.1 17 Nordeste 29 Nordeste 0 -- -- 74
2018-09-07 02:00:00 17.1 19 Nordeste 41 Este 0 -- -- 68
2018-09-07 01:00:00 18.3 24 Nordeste 39 Nordeste 0 -- -- 63
2018-09-07 00:00:00 18.7 12 Este 17 Nordeste 0 -- -- 66
2018-09-06 23:00:00 19.2 0 Calma 13 Sur 0 -- -- 64
2018-09-06 22:00:00 20.4 9 Sur 19 Sur 0 -- -- 59
2018-09-06 21:00:00 22.4 5 Nordeste 13 Norte 0 -- -- 43
2018-09-06 20:00:00 22.9 8 Norte 18 Nordeste 0 -- -- 43
2018-09-06 19:00:00 23.8 11 Nordeste 21 Noroeste 0 -- -- 41
2018-09-06 18:00:00 24.4 9 Norte 22 Norte 0 -- -- 41
2018-09-06 17:00:00 24.5 10 Nordeste 25 Norte 0 -- -- 41
2018-09-06 16:00:00 24 12 Nordeste 23 Norte 0 -- -- 44
2018-09-06 15:00:00 23.4 6 Nordeste 27 Este 0 -- -- 49
2018-09-06 14:00:00 22.4 12 Nordeste 27 Nordeste 0 -- -- 51
2018-09-06 13:00:00 20.7 13 Nordeste 23 Nordeste 0 -- -- 61
2018-09-06 12:00:00 18.7 9 Nordeste 22 Este 0 -- -- 70
2018-09-06 11:00:00 16.6 13 Nordeste 20 Nordeste 0 -- -- 79
2018-09-06 10:00:00 15.2 8 Nordeste 19 Este 0 -- -- 85
2018-09-06 09:00:00 14.8 7 Nordeste 13 Nordeste 0 -- -- 88
2018-09-06 08:00:00 14.7 6 Nordeste 14 Norte 0 -- -- 90
2018-09-06 07:00:00 14.5 6 Nordeste 15 Norte 0 -- -- 92
2018-09-06 06:00:00 12.1 2 Nordeste 8 Este 0 -- -- 92
2018-09-06 05:00:00 12.2 0 Calma 7 Sur 0 -- -- 86
2018-09-06 04:00:00 13.1 2 Sur 6 Sur 0 -- -- 83
2018-09-06 03:00:00 14.1 3 Sudoeste 4 Oeste 0 -- -- 82
2018-09-06 02:00:00 15.3 3 Sudoeste 7 Sur 0 -- -- 78
2018-09-06 01:00:00 15.9 2 Oeste 6 Sudoeste 0 -- -- 80
2018-09-06 00:00:00 16.2 2 Nordeste 6 Norte 0 -- -- 77
2018-09-05 23:00:00 17.2 5 Oeste 6 Oeste 0 -- -- 73
2018-09-05 22:00:00 18.1 2 Sudeste 5 Sudeste 0 -- -- 71
2018-09-05 21:00:00 18.5 0 Calma 7 Noroeste 0 -- -- 69
2018-09-05 20:00:00 19.1 4 Norte 19 Noroeste 0 -- -- 66
2018-09-05 19:00:00 21.2 14 Noroeste 28 Noroeste 0 -- -- 52
2018-09-05 18:00:00 22.5 14 Noroeste 31 Oeste 0 -- -- 52
2018-09-05 17:00:00 25.1 13 Oeste 35 Oeste 0 -- -- 43
2018-09-05 16:00:00 24.9 18 Oeste 31 Oeste 0 -- -- 46
2018-09-05 15:00:00 23.1 11 Oeste 24 Sudoeste 0 -- -- 49
2018-09-05 14:00:00 23.2 14 Sudoeste 25 Sudoeste 0 -- -- 49
2018-09-05 13:00:00 19.9 6 Oeste 21 Oeste 0 -- -- 69
2018-09-05 12:00:00 20.7 10 Oeste 21 Noroeste 0 -- -- 59
2018-09-05 11:00:00 20.1 9 Oeste 17 Oeste 0 -- -- 65
2018-09-05 10:00:00 17.3 9 Oeste 17 Oeste 0 -- -- 79
2018-09-05 09:00:00 13.6 0 Calma 5 Este 0 -- -- 93
2018-09-05 08:00:00 12.5 3 Sur 7 Sur 0 -- -- 88
2018-09-05 07:00:00 13.5 2 Norte 8 Sur 0 -- -- 89
2018-09-05 06:00:00 13.6 4 Sur 7 Sur 0 -- -- 89
2018-09-05 05:00:00 14.2 0 Calma 5 Sur 0 -- -- 85
2018-09-05 04:00:00 14.8 2 Sur 6 Sur 0 -- -- 79
2018-09-05 03:00:00 15.5 4 Sur 9 Sudoeste 0 -- -- 74
2018-09-05 02:00:00 16.6 4 Sur 8 Sudoeste 0 -- -- 69
2018-09-05 01:00:00 17.2 6 Sur 13 Sur 0 -- -- 65
2018-09-05 00:00:00 19 6 Sur 10 Sur 0 -- -- 60
2018-09-04 23:00:00 21.4 3 Sur 8 Sudoeste 0 -- -- 57
2018-09-04 22:00:00 22.7 4 Oeste 14 Sudoeste 0 -- -- 48
2018-09-04 21:00:00 23.8 9 Sudoeste 23 Sudoeste 0 -- -- 45
2018-09-04 20:00:00 25.8 14 Sudoeste 24 Sudoeste 0 -- -- 40
2018-09-04 19:00:00 27 8 Sur 22 Sudoeste 0 -- -- 37
2018-09-04 18:00:00 26.8 4 Nordeste 21 Sudoeste 0 -- -- 39
2018-09-04 17:00:00 27.3 9 Oeste 23 Oeste 0 -- -- 40
2018-09-04 16:00:00 26.6 12 Noroeste 22 Oeste 0 -- -- 45
2018-09-04 15:00:00 25.2 9 Noroeste 23 Oeste 0 -- -- 47
2018-09-04 14:00:00 24.3 9 Noroeste 21 Noroeste 0 -- -- 51
2018-09-04 13:00:00 23.1 8 Noroeste 17 Noroeste 0 -- -- 58
2018-09-04 12:00:00 20.7 4 Noroeste 8 Noroeste 0 -- -- 64
2018-09-04 11:00:00 18 5 Nordeste 10 Nordeste 0 -- -- 67
2018-09-04 10:00:00 15.6 5 Sudeste 11 Este 0 -- -- 70
2018-09-04 09:00:00 12.6 0 Calma 3 Sur 0 -- -- 90
2018-09-04 08:00:00 11.8 2 Sur 4 Sur 0 -- -- 87
2018-09-04 07:00:00 12.8 0 Calma 5 Norte 0 -- -- 87
2018-09-04 06:00:00 13.9 3 Nordeste 8 Norte 0 -- -- 76
2018-09-04 05:00:00 14.6 4 Nordeste 10 Este 0 -- -- 80
2018-09-04 04:00:00 15.7 7 Nordeste 11 Nordeste 0 -- -- 74
2018-09-04 03:00:00 16.7 8 Nordeste 14 Nordeste 0 -- -- 77
2018-09-04 02:00:00 16.8 5 Nordeste 13 Nordeste 0 -- -- 80
2018-09-04 01:00:00 16.7 3 Noroeste 9 Sur 0 -- -- 83
2018-09-04 00:00:00 17.3 6 Sur 10 Sur 0 -- -- 80
2018-09-03 23:00:00 18.7 3 Sudeste 5 Sur 0 -- -- 86
2018-09-03 22:00:00 20 3 Norte 8 Sudoeste 0 -- -- 76
2018-09-03 21:00:00 21 3 Sudeste 10 Sudoeste 0 -- -- 81
2018-09-03 20:00:00 21 8 Oeste 39 Sudeste 0.4 -- -- 77
2018-09-03 19:00:00 24.1 15 Sur 39 Sudeste 6.8 -- -- 57
2018-09-03 18:00:00 27.9 3 Norte 9 Sudeste 0 -- -- 41
2018-09-03 17:00:00 28.1 4 Norte 17 Nordeste 0 -- -- 40
2018-09-03 16:00:00 28.9 6 Noroeste 15 Norte 0 -- -- 38
2018-09-03 15:00:00 28.8 9 Oeste 17 Oeste 0 -- -- 40
2018-09-03 14:00:00 27.2 5 Nordeste 15 Noroeste 0 -- -- 43
2018-09-03 13:00:00 26.1 6 Este 16 Nordeste 0 -- -- 46
2018-09-03 12:00:00 24.2 7 Nordeste 15 Nordeste 0 -- -- 53
2018-09-03 11:00:00 21.3 6 Nordeste 19 Norte 0 -- -- 61
2018-09-03 10:00:00 20.9 12 Norte 25 Norte 0 -- -- 64
2018-09-03 09:00:00 19.7 9 Noroeste 19 Noroeste 0 -- -- 68
2018-09-03 08:00:00 17.7 3 Sudeste 9 Sudoeste 0 -- -- 74
2018-09-03 07:00:00 18.9 5 Sur 16 Sur 0 -- -- 67
2018-09-03 06:00:00 19.2 8 Sudeste 13 Sudeste 0 -- -- 65
2018-09-03 05:00:00 19.7 6 Sur 15 Sudeste 0 -- -- 67
2018-09-03 04:00:00 20.2 3 Sudoeste 21 Este 0 -- -- 66
2018-09-03 03:00:00 21.2 9 Este 26 Oeste 0.6 -- -- 66
2018-09-03 02:00:00 24.1 5 Noroeste 24 Nordeste 0 -- -- 44
2018-09-03 01:00:00 24.4 7 Nordeste 18 Noroeste 0 -- -- 43
2018-09-03 00:00:00 26.2 11 Noroeste 33 Oeste 0 -- -- 38
2018-09-02 23:00:00 25.2 12 Sur 28 Sur 0 -- -- 31
2018-09-02 22:00:00 25.3 7 Sudeste 9 Sudoeste 0 -- -- 38
2018-09-02 21:00:00 29 7 Sudoeste 39 Sudoeste 0 -- -- 31
2018-09-02 20:00:00 32.4 9 Sudoeste 20 Sudoeste 0 -- -- 26
2018-09-02 19:00:00 33.2 14 Oeste 25 Sudoeste 0 -- -- 23
2018-09-02 18:00:00 34.2 15 Oeste 32 Oeste 0 -- -- 22
2018-09-02 17:00:00 34.5 17 Sudoeste 31 Sudoeste 0 -- -- 19
2018-09-02 16:00:00 33.9 5 Este 29 Sudoeste 0 -- -- 20
2018-09-02 15:00:00 33.3 9 Oeste 19 Noroeste 0 -- -- 24
2018-09-02 14:00:00 32.2 6 Noroeste 17 Norte 0 -- -- 28
2018-09-02 13:00:00 30.8 5 Norte 12 Nordeste 0 -- -- 32
2018-09-02 12:00:00 27.7 7 Nordeste 14 Nordeste 0 -- -- 37
2018-09-02 11:00:00 24.2 10 Este 14 Este 0 -- -- 43
2018-09-02 10:00:00 21.1 8 Este 13 Nordeste 0 -- -- 52
2018-09-02 09:00:00 17.6 2 Sudeste 8 Este 0 -- -- 61
2018-09-02 08:00:00 16.9 3 Este 9 Nordeste 0 -- -- 60
2018-09-02 07:00:00 18.8 5 Nordeste 17 Este 0 -- -- 53
2018-09-02 06:00:00 19.7 13 Este 19 Este 0 -- -- 51
2018-09-02 05:00:00 17.8 3 Sur 9 Sudoeste 0 -- -- 53
2018-09-02 04:00:00 17.6 6 Sudoeste 10 Sudoeste 0 -- -- 53
2018-09-02 03:00:00 19.5 3 Sudoeste 19 Este 0 -- -- 48
2018-09-02 02:00:00 20.5 14 Este 22 Este 0 -- -- 46
2018-09-02 01:00:00 17.1 3 Sur 7 Sur 0 -- -- 52
2018-09-02 00:00:00 18.7 3 Sur 7 Sur 0 -- -- 48
2018-09-01 23:00:00 20.9 4 Sur 6 Sur 0 -- -- 44
2018-09-01 22:00:00 24.3 4 Sur 7 Sur 0 -- -- 36
2018-09-01 21:00:00 28 4 Nordeste 13 Nordeste 0 -- -- 30
2018-09-01 20:00:00 30.3 7 Norte 17 Noroeste 0 -- -- 27
2018-09-01 19:00:00 31.4 7 Norte 17 Noroeste 0 -- -- 26
2018-09-01 18:00:00 31.8 9 Norte 19 Nordeste 0 -- -- 26
2018-09-01 17:00:00 32.2 8 Nordeste 21 Nordeste 0 -- -- 26
2018-09-01 16:00:00 31.4 8 Este 20 Este 0 -- -- 27
2018-09-01 15:00:00 30.6 9 Este 24 Este 0 -- -- 28
2018-09-01 14:00:00 29.6 14 Este 27 Este 0 -- -- 31
2018-09-01 13:00:00 27.6 15 Este 27 Nordeste 0 -- -- 40
2018-09-01 12:00:00 24.8 10 Nordeste 23 Este 0 -- -- 48
2018-09-01 11:00:00 21.7 14 Este 19 Este 0 -- -- 56
2018-09-01 10:00:00 19.1 12 Este 21 Este 0 -- -- 64
2018-09-01 09:00:00 15.5 6 Este 10 Este 0 -- -- 77
2018-09-01 08:00:00 12.8 2 Este 4 Este 0 -- -- 74
2018-09-01 07:00:00 13.8 0 Calma 7 Noroeste 0 -- -- 72
2018-09-01 06:00:00 15.5 3 Norte 9 Este 0 -- -- 68
2018-09-01 05:00:00 17.2 8 Este 16 Este 0 -- -- 63
2018-09-01 04:00:00 18 9 Este 21 Este 0 -- -- 59
2018-09-01 03:00:00 19.1 17 Este 26 Este 0 -- -- 54
2018-09-01 02:00:00 19.7 18 Este 25 Este 0 -- -- 50
2018-09-01 01:00:00 20 15 Este 24 Este 0 -- -- 47
2018-09-01 00:00:00 17.9 3 Sur 4 Sur 0 -- -- 51
2018-08-31 23:00:00 19.9 4 Sur 10 Sur 0 -- -- 45
2018-08-31 22:00:00 23.8 5 Nordeste 9 Norte 0 -- -- 37
2018-08-31 21:00:00 27.1 5 Nordeste 15 Norte 0 -- -- 32
2018-08-31 20:00:00 29 6 Norte 14 Noroeste 0 -- -- 28
2018-08-31 19:00:00 30.1 6 Norte 16 Nordeste 0 -- -- 28
2018-08-31 18:00:00 30.3 8 Norte 21 Noroeste 0 -- -- 27
2018-08-31 17:00:00 30.4 7 Noroeste 17 Norte 0 -- -- 29
2018-08-31 16:00:00 30.4 7 Nordeste 19 Este 0 -- -- 32
2018-08-31 15:00:00 29.5 11 Nordeste 24 Este 0 -- -- 36
2018-08-31 14:00:00 27.9 14 Este 25 Este 0 -- -- 39
2018-08-31 13:00:00 25.7 10 Nordeste 23 Este 0 -- -- 47
2018-08-31 12:00:00 23.2 13 Este 23 Este 0 -- -- 53
2018-08-31 11:00:00 20.6 11 Este 21 Nordeste 0 -- -- 60
2018-08-31 10:00:00 17.9 12 Este 18 Nordeste 0 -- -- 69
2018-08-31 09:00:00 14.2 5 Este 7 Este 0 -- -- 82
2018-08-31 08:00:00 12.1 3 Este 8 Este 0 -- -- 87
2018-08-31 07:00:00 11.5 0 Calma 6 Sudeste 0 -- -- 75
2018-08-31 06:00:00 12 0 Calma 6 Sur 0 -- -- 73
2018-08-31 05:00:00 12.7 0 Calma 5 Sur 0 -- -- 71
2018-08-31 04:00:00 13.1 3 Sur 7 Sur 0 -- -- 68
2018-08-31 03:00:00 14.2 2 Sur 5 Sur 0 -- -- 65
2018-08-31 02:00:00 15.5 2 Sudoeste 6 Sur 0 -- -- 61
2018-08-31 01:00:00 16.4 6 Sur 8 Sur 0 -- -- 59
2018-08-31 00:00:00 17.8 6 Sur 12 Sur 0 -- -- 55
2018-08-30 23:00:00 19.7 6 Sur 8 Sur 0 -- -- 50
2018-08-30 22:00:00 23 2 Sudeste 9 Noroeste 0 -- -- 44
2018-08-30 21:00:00 26.4 3 Norte 8 Noroeste 0 -- -- 38
2018-08-30 20:00:00 29.1 4 Norte 10 Noroeste 0 -- -- 32
2018-08-30 19:00:00 30.1 5 Noroeste 19 Noroeste 0 -- -- 30
2018-08-30 18:00:00 30.4 7 Noroeste 22 Oeste 0 -- -- 28
2018-08-30 17:00:00 30.3 8 Norte 22 Noroeste 0 -- -- 29
2018-08-30 16:00:00 29.8 4 Sudeste 16 Este 0 -- -- 33
2018-08-30 15:00:00 28.8 7 Nordeste 25 Norte 0 -- -- 38
2018-08-30 14:00:00 26.8 7 Nordeste 17 Sudeste 0 -- -- 44
2018-08-30 13:00:00 24.4 9 Este 18 Nordeste 0 -- -- 50
2018-08-30 12:00:00 22.1 10 Este 19 Este 0 -- -- 57
2018-08-30 11:00:00 19.5 10 Este 18 Este 0 -- -- 65
2018-08-30 10:00:00 17 7 Nordeste 18 Este 0 -- -- 73
2018-08-30 09:00:00 14 5 Norte 11 Norte 0 -- -- 86
2018-08-30 08:00:00 13.3 0 Calma 5 Este 0 -- -- 84
2018-08-30 07:00:00 14.5 0 Calma 13 Este 0 -- -- 83
2018-08-30 06:00:00 15.3 6 Nordeste 12 Nordeste 0 -- -- 82
2018-08-30 05:00:00 16 5 Nordeste 14 Norte 0 -- -- 79
2018-08-30 04:00:00 16.2 5 Nordeste 14 Norte 0 -- -- 78
2018-08-30 03:00:00 14.8 0 Calma 6 Sur 0 -- -- 71
2018-08-30 02:00:00 16.4 4 Sur 6 Norte 0 -- -- 63
2018-08-30 01:00:00 19.7 4 Norte 12 Norte 0 -- -- 59
2018-08-30 00:00:00 17.9 4 Norte 8 Norte 0 -- -- 59
2018-08-29 23:00:00 18.9 3 Sudoeste 6 Sudoeste 0 -- -- 54
2018-08-29 22:00:00 22.1 2 Sur 6 Norte 0 -- -- 46
2018-08-29 21:00:00 25.6 4 Norte 8 Norte 0 -- -- 40
2018-08-29 20:00:00 27.7 4 Norte 11 Norte 0 -- -- 35
2018-08-29 19:00:00 28.2 9 Noroeste 17 Norte 0 -- -- 34
2018-08-29 18:00:00 28.8 6 Norte 20 Noroeste 0 -- -- 33
2018-08-29 17:00:00 28.4 10 Noroeste 20 Norte 0 -- -- 34
2018-08-29 16:00:00 27.9 6 Norte 21 Norte 0 -- -- 38
2018-08-29 15:00:00 26.9 8 Noroeste 17 Nordeste 0 -- -- 43
2018-08-29 14:00:00 25 6 Norte 19 Norte 0 -- -- 48
2018-08-29 13:00:00 22.7 7 Nordeste 18 Noroeste 0 -- -- 57
2018-08-29 12:00:00 20.3 5 Norte 14 Norte 0 -- -- 67
2018-08-29 11:00:00 18.1 5 Norte 13 Noroeste 0 -- -- 76
2018-08-29 10:00:00 15.9 5 Noroeste 13 Oeste 0 -- -- 87
2018-08-29 09:00:00 15.4 6 Oeste 15 Oeste 0 -- -- 90
2018-08-29 08:00:00 15.4 7 Oeste 15 Oeste 0 -- -- 91
2018-08-29 07:00:00 15.3 6 Oeste 18 Sudoeste 0 -- -- 91
2018-08-29 06:00:00 15.3 6 Oeste 15 Sudoeste 0 -- -- 90
2018-08-29 05:00:00 15.4 8 Sudoeste 13 Oeste 0 -- -- 90
2018-08-29 04:00:00 15.9 7 Sudoeste 15 Sudoeste 0 -- -- 89
2018-08-29 03:00:00 16.6 9 Sudoeste 14 Oeste 0 -- -- 85
2018-08-29 02:00:00 17.5 9 Oeste 14 Sudoeste 0 -- -- 80
2018-08-29 01:00:00 18.7 8 Oeste 14 Oeste 0 -- -- 71
2018-08-29 00:00:00 20.1 9 Sudoeste 18 Sudoeste 0 -- -- 62
2018-08-28 23:00:00 20.8 4 Sudoeste 13 Oeste 0 -- -- 51
2018-08-28 22:00:00 23.8 6 Oeste 16 Oeste 0 -- -- 44
2018-08-28 21:00:00 25.8 9 Oeste 27 Oeste 0 -- -- 38
2018-08-28 20:00:00 27.6 17 Sudoeste 28 Oeste 0 -- -- 35
2018-08-28 19:00:00 29.3 21 Sudoeste 36 Sudoeste 0 -- -- 31
2018-08-28 18:00:00 30 22 Sudoeste 36 Oeste 0 -- -- 31
2018-08-28 17:00:00 30.3 23 Oeste 39 Sudoeste 0 -- -- 28
2018-08-28 16:00:00 29.5 19 Sudoeste 37 Oeste 0 -- -- 37
2018-08-28 15:00:00 29 22 Sudoeste 41 Sur 0 -- -- 38
2018-08-28 14:00:00 27.6 23 Sur 42 Sur 0 -- -- 41
2018-08-28 13:00:00 26.5 21 Sur 37 Sur 0 -- -- 45
2018-08-28 12:00:00 25.5 22 Sur 37 Sur 0 -- -- 49
2018-08-28 11:00:00 24.2 24 Sudoeste 36 Sur 0 -- -- 52
2018-08-28 10:00:00 22.6 25 Sur 51 Sur 0 -- -- 56
2018-08-28 09:00:00 21 16 Sur 30 Sur 0 -- -- 60
2018-08-28 08:00:00 20.5 16 Sur 27 Sur 0 -- -- 60
2018-08-28 07:00:00 21.1 15 Sur 35 Sur 0 -- -- 56
2018-08-28 06:00:00 22.6 22 Sur 36 Sur 0 -- -- 49
2018-08-28 05:00:00 22.9 15 Sur 36 Sudoeste 0 -- -- 47
2018-08-28 04:00:00 15.6 3 Sur 9 Sur 0 -- -- 54
2018-08-28 03:00:00 15.4 3 Sudeste 6 Sudoeste 0 -- -- 57
2018-08-28 02:00:00 15.6 2 Sudoeste 5 Sur 0 -- -- 53
2018-08-28 01:00:00 16.8 2 Sudoeste 6 Sur 0 -- -- 49
2018-08-28 00:00:00 17.9 4 Sur 9 Sudoeste 0 -- -- 46
2018-08-27 23:00:00 19.7 5 Sur 8 Sur 0 -- -- 44
2018-08-27 22:00:00 22.1 8 Sur 10 Sur 0 -- -- 38
2018-08-27 21:00:00 26.7 0 Calma 9 Noroeste 0 -- -- 33
2018-08-27 20:00:00 30.2 7 Noroeste 15 Sudoeste 0 -- -- 24
2018-08-27 19:00:00 32.3 10 Sudoeste 24 Sur 0 -- -- 22
2018-08-27 18:00:00 29.8 9 Oeste 39 Sur 0 -- -- 24
2018-08-27 17:00:00 30.6 24 Sur 40 Sur 0 -- -- 22
2018-08-27 16:00:00 33 15 Sudoeste 29 Sudoeste 0 -- -- 19
2018-08-27 15:00:00 33.6 9 Oeste 28 Oeste 0 -- -- 18
2018-08-27 14:00:00 33.4 12 Sur 31 Sudoeste 0 -- -- 18
2018-08-27 13:00:00 32 12 Sudoeste 22 Sudoeste 0 -- -- 20
2018-08-27 12:00:00 29.6 8 Este 15 Este 0 -- -- 27
2018-08-27 11:00:00 25.9 4 Este 10 Este 0 -- -- 34
2018-08-27 10:00:00 20.7 3 Este 6 Nordeste 0 -- -- 47
2018-08-27 09:00:00 13.6 0 Calma 6 Sur 0 -- -- 69
2018-08-27 08:00:00 10.6 4 Sur 7 Sur 0 -- -- 74
2018-08-27 07:00:00 10.8 4 Sur 6 Sur 0 -- -- 72
2018-08-27 06:00:00 11.6 2 Sur 7 Sudeste 0 -- -- 68
2018-08-27 05:00:00 12.3 2 Este 6 Sur 0 -- -- 67
2018-08-27 04:00:00 13 4 Sur 11 Sur 0 -- -- 64
2018-08-27 03:00:00 13.5 6 Sur 9 Sur 0 -- -- 62
2018-08-27 02:00:00 14.4 5 Sur 8 Sur 0 -- -- 59
2018-08-27 01:00:00 15.8 6 Sur 8 Sur 0 -- -- 54
2018-08-27 00:00:00 17.6 4 Sur 10 Sur 0 -- -- 50
2018-08-26 23:00:00 19.4 8 Sur 10 Sur 0 -- -- 45
2018-08-26 22:00:00 23.5 3 Sudeste 10 Noroeste 0 -- -- 39
2018-08-26 21:00:00 28.3 6 Noroeste 15 Oeste 0 -- -- 29
2018-08-26 20:00:00 30.7 10 Oeste 21 Oeste 0 -- -- 24
2018-08-26 19:00:00 31.2 10 Oeste 27 Sudoeste 0 -- -- 24
2018-08-26 18:00:00 31.6 12 Oeste 26 Oeste 0 -- -- 23
2018-08-26 17:00:00 31.1 14 Oeste 27 Oeste 0 -- -- 25
2018-08-26 16:00:00 30.3 8 Noroeste 25 Oeste 0 -- -- 27
2018-08-26 15:00:00 28.6 9 Noroeste 15 Noroeste 0 -- -- 29
2018-08-26 14:00:00 27.4 6 Este 19 Este 0 -- -- 32
2018-08-26 13:00:00 25.6 9 Este 16 Este 0 -- -- 36
2018-08-26 12:00:00 22.5 9 Este 16 Este 0 -- -- 44
2018-08-26 11:00:00 19.4 10 Este 17 Este 0 -- -- 54
2018-08-26 10:00:00 16.3 10 Nordeste 19 Nordeste 0 -- -- 64
2018-08-26 09:00:00 13.1 6 Este 13 Este 0 -- -- 76
2018-08-26 08:00:00 11.2 2 Sudeste 6 Este 0 -- -- 76
2018-08-26 07:00:00 12.1 4 Este 7 Este 0 -- -- 74
2018-08-26 06:00:00 13.3 5 Nordeste 10 Este 0 -- -- 69
2018-08-26 05:00:00 14 7 Este 12 Este 0 -- -- 65
2018-08-26 04:00:00 15.8 3 Nordeste 17 Nordeste 0 -- -- 54
2018-08-26 03:00:00 15 6 Nordeste 13 Nordeste 0 -- -- 56
2018-08-26 02:00:00 15 3 Sudoeste 7 Sur 0 -- -- 54
2018-08-26 01:00:00 15.3 2 Sudeste 6 Oeste 0 -- -- 53
2018-08-26 00:00:00 16.7 3 Sudoeste 14 Sur 0 -- -- 48
2018-08-25 23:00:00 19.1 3 Este 7 Nordeste 0 -- -- 45
2018-08-25 22:00:00 22.1 3 Nordeste 8 Norte 0 -- -- 36
2018-08-25 21:00:00 24.7 5 Norte 12 Norte 0 -- -- 32
2018-08-25 20:00:00 26.3 6 Norte 14 Nordeste 0 -- -- 30
2018-08-25 19:00:00 27.6 3 Norte 14 Norte 0 -- -- 29
2018-08-25 18:00:00 27.2 9 Noroeste 19 Noroeste 0 -- -- 30
2018-08-25 17:00:00 27 6 Este 19 Nordeste 0 -- -- 29
2018-08-25 16:00:00 26 10 Noroeste 20 Norte 0 -- -- 34
2018-08-25 15:00:00 25.6 8 Norte 18 Nordeste 0 -- -- 38
2018-08-25 14:00:00 24.3 10 Nordeste 21 Norte 0 -- -- 42
2018-08-25 13:00:00 22.6 9 Este 20 Sudeste 0 -- -- 48
2018-08-25 12:00:00 20.2 6 Nordeste 13 Este 0 -- -- 55
2018-08-25 11:00:00 17.6 8 Este 15 Este 0 -- -- 63
2018-08-25 10:00:00 14.8 11 Este 15 Este 0 -- -- 73
2018-08-25 09:00:00 8.9 3 Sur 6 Sur 0 -- -- 76
2018-08-25 08:00:00 7.1 3 Sur 10 Sur 0 -- -- 74
2018-08-25 07:00:00 8 3 Sur 6 Sur 0 -- -- 74
2018-08-25 06:00:00 9.1 0 Calma 6 Sur 0 -- -- 69
2018-08-25 05:00:00 10.8 3 Sur 8 Sur 0 -- -- 63
2018-08-25 04:00:00 12 0 Calma 7 Sur 0 -- -- 59
2018-08-25 03:00:00 13.3 4 Oeste 10 Sudoeste 0 -- -- 56
2018-08-25 02:00:00 14 5 Sur 9 Sur 0 -- -- 53
2018-08-25 01:00:00 14.5 4 Sudeste 9 Sur 0 -- -- 55
2018-08-25 00:00:00 15.8 6 Sur 8 Sur 0 -- -- 52